createdAt,value
2018-07-05T00:02:19.206Z,94.90
2018-07-05T00:04:58.796Z,95.50
2018-07-05T00:07:38.368Z,95.20
2018-07-05T00:10:17.816Z,95.20
2018-07-05T00:12:57.527Z,95.30
2018-07-05T00:15:36.999Z,95.20
2018-07-05T00:18:16.660Z,95.20
2018-07-05T00:20:56.221Z,95.30
2018-07-05T00:23:35.863Z,95.50
2018-07-05T00:26:15.321Z,95.90
2018-07-05T00:28:54.891Z,96.00
2018-07-05T00:31:34.468Z,95.90
2018-07-05T00:34:14.046Z,96.00
2018-07-05T00:36:53.497Z,96.20
2018-07-05T00:39:33.031Z,96.30
2018-07-05T00:42:12.676Z,96.40
2018-07-05T00:44:52.506Z,96.50
2018-07-05T00:47:32.286Z,96.60
2018-07-05T00:50:11.914Z,96.70
2018-07-05T00:52:51.688Z,96.70
2018-07-05T00:55:31.446Z,96.80
2018-07-05T00:58:10.992Z,96.80
2018-07-05T01:00:50.657Z,96.80
2018-07-05T01:03:30.264Z,96.90
2018-07-05T01:06:10.071Z,96.80
2018-07-05T01:08:49.617Z,96.70
2018-07-05T01:11:29.126Z,96.40
2018-07-05T01:14:08.616Z,96.40
2018-07-05T01:16:48.243Z,96.60
2018-07-05T01:19:27.942Z,96.70
2018-07-05T01:22:07.472Z,96.80
2018-07-05T01:27:21.708Z,96.90
2018-07-05T01:30:01.395Z,97.30
2018-07-05T01:32:41.021Z,96.90
2018-07-05T01:35:21.586Z,96.80
2018-07-05T01:38:01.144Z,96.80
2018-07-05T01:40:40.703Z,96.90
2018-07-05T01:43:20.232Z,97.00
2018-07-05T01:45:59.730Z,97.10
2018-07-05T01:48:39.306Z,97.20
2018-07-05T01:51:18.902Z,97.30
2018-07-05T01:53:58.613Z,97.30
2018-07-05T01:56:38.247Z,97.20
2018-07-05T01:59:17.805Z,97.10
2018-07-05T02:01:57.253Z,96.90
2018-07-05T02:04:36.921Z,97.10
2018-07-05T02:07:16.505Z,97.40
2018-07-05T02:09:56.037Z,97.00
2018-07-05T02:12:35.663Z,97.00
2018-07-05T02:17:48.988Z,96.90
2018-07-05T02:20:28.517Z,96.70
2018-07-05T02:23:08.125Z,96.60
2018-07-05T02:25:47.705Z,96.60
2018-07-05T02:28:27.341Z,96.20
2018-07-05T02:31:06.861Z,96.10
2018-07-05T02:33:46.970Z,96.20
2018-07-05T02:36:26.933Z,95.80
2018-07-05T02:39:12.041Z,95.70
2018-07-05T02:41:51.803Z,95.60
2018-07-05T02:44:31.521Z,95.80
2018-07-05T02:47:10.949Z,96.20
2018-07-05T02:49:50.592Z,96.00
2018-07-05T02:52:30.282Z,96.00
2018-07-05T02:55:09.906Z,96.30
2018-07-05T02:57:49.588Z,96.30
2018-07-05T03:00:29.341Z,96.60
2018-07-05T03:03:09.011Z,96.60
2018-07-05T03:05:50.675Z,96.50
2018-07-05T03:08:30.323Z,96.40
2018-07-05T03:11:10.080Z,96.30
2018-07-05T03:13:49.721Z,96.20
2018-07-05T03:16:29.372Z,96.00
2018-07-05T03:19:09.007Z,95.80
2018-07-05T03:21:48.657Z,95.90
2018-07-05T03:24:28.191Z,96.00
2018-07-05T03:27:08.957Z,96.10
2018-07-05T03:29:48.562Z,96.20
2018-07-05T03:32:28.158Z,96.60
2018-07-05T03:35:07.929Z,96.20
2018-07-05T03:37:47.539Z,96.30
2018-07-05T03:40:27.096Z,96.30
2018-07-05T03:43:06.608Z,96.40
2018-07-05T03:45:46.100Z,96.60
2018-07-05T03:48:25.846Z,96.60
2018-07-05T03:51:05.459Z,96.60
2018-07-05T03:53:44.999Z,96.60
2018-07-05T03:56:24.991Z,96.70
2018-07-05T03:59:04.855Z,96.60
2018-07-05T04:01:44.679Z,96.40
2018-07-05T04:04:24.302Z,96.20
2018-07-05T04:07:05.266Z,96.10
2018-07-05T04:09:45.013Z,96.10
2018-07-05T04:14:58.114Z,96.00
2018-07-05T04:17:37.687Z,95.90
2018-07-05T04:22:50.831Z,95.60
2018-07-05T04:28:04.208Z,95.20
2018-07-05T04:30:43.892Z,95.10
2018-07-05T04:33:23.490Z,94.90
2018-07-05T04:36:03.075Z,94.60
2018-07-05T04:38:42.780Z,94.30
2018-07-05T04:41:22.414Z,94.00
2018-07-05T04:44:02.153Z,93.90
2018-07-05T04:46:42.776Z,93.90
2018-07-05T04:49:22.303Z,94.00
2018-07-05T04:52:01.981Z,93.90
2018-07-05T04:54:41.599Z,93.90
2018-07-05T04:57:21.036Z,93.90
2018-07-05T05:00:00.473Z,93.90
2018-07-05T05:02:40.170Z,94.00
2018-07-05T05:05:20.439Z,93.90
2018-07-05T05:07:59.944Z,93.90
2018-07-05T05:10:39.612Z,93.90
2018-07-05T05:13:19.318Z,94.00
2018-07-05T05:15:58.855Z,93.90
2018-07-05T05:18:38.352Z,93.90
2018-07-05T05:21:17.865Z,93.70
2018-07-05T05:23:57.608Z,93.60
2018-07-05T05:26:37.119Z,93.30
2018-07-05T05:29:16.677Z,92.90
2018-07-05T05:31:56.238Z,92.50
2018-07-05T05:34:35.769Z,92.20
2018-07-05T05:37:15.473Z,92.00
2018-07-05T05:39:55.142Z,91.70
2018-07-05T05:42:34.711Z,91.40
2018-07-05T05:45:14.436Z,91.00
2018-07-05T05:47:54.119Z,90.90
2018-07-05T05:50:33.603Z,90.70
2018-07-05T05:53:13.256Z,90.30
2018-07-05T05:55:52.585Z,90.10
2018-07-05T05:58:32.225Z,89.90
2018-07-05T06:01:11.968Z,90.00
2018-07-05T06:03:51.573Z,90.20
2018-07-05T06:06:30.921Z,90.30
2018-07-05T06:09:10.510Z,90.50
2018-07-05T06:11:50.063Z,90.20
2018-07-05T06:14:29.768Z,89.90
2018-07-05T06:17:09.244Z,90.00
2018-07-05T06:19:48.893Z,89.90
2018-07-05T06:22:28.440Z,90.20
2018-07-05T06:25:08.115Z,90.30
2018-07-05T06:27:47.796Z,90.10
2018-07-05T06:30:27.449Z,89.60
2018-07-05T06:33:07.049Z,89.10
2018-07-05T06:35:46.692Z,90.20
2018-07-05T06:38:26.389Z,89.30
2018-07-05T06:41:05.893Z,88.80
2018-07-05T06:43:45.617Z,87.90
2018-07-05T06:46:25.114Z,87.10
2018-07-05T06:49:04.815Z,87.00
2018-07-05T06:51:44.244Z,86.40
2018-07-05T06:54:23.845Z,86.00
2018-07-05T06:57:03.307Z,86.30
2018-07-05T06:59:42.934Z,86.40
2018-07-05T07:02:22.648Z,86.70
2018-07-05T07:05:02.306Z,87.30
2018-07-05T07:07:41.961Z,87.60
2018-07-05T07:10:21.501Z,87.60
2018-07-05T07:13:01.031Z,87.10
2018-07-05T07:15:40.578Z,87.20
2018-07-05T07:18:20.225Z,87.20
2018-07-05T07:20:59.798Z,88.70
2018-07-05T07:23:39.394Z,89.20
2018-07-05T07:26:18.850Z,89.40
2018-07-05T07:28:58.508Z,88.50
2018-07-05T07:31:38.217Z,86.40
2018-07-05T07:34:17.781Z,86.00
2018-07-05T07:36:57.508Z,85.90
2018-07-05T07:39:37.249Z,86.30
2018-07-05T07:42:04.494Z,86.00
2018-07-05T07:44:31.757Z,84.90
2018-07-05T07:46:58.951Z,81.10
2018-07-05T07:49:26.183Z,83.50
2018-07-05T07:51:53.422Z,83.20
2018-07-05T07:54:20.705Z,84.70
2018-07-05T07:56:47.957Z,84.30
2018-07-05T07:59:15.134Z,85.20
2018-07-05T08:01:42.372Z,85.80
2018-07-05T08:04:09.583Z,84.30
2018-07-05T08:06:36.807Z,84.00
2018-07-05T08:09:05.495Z,82.60
2018-07-05T08:11:32.724Z,83.60
2018-07-05T08:13:59.903Z,83.50
2018-07-05T08:16:27.148Z,83.60
2018-07-05T08:18:54.370Z,83.20
2018-07-05T08:21:21.605Z,82.10
2018-07-05T08:23:48.821Z,80.80
2018-07-05T08:26:16.993Z,81.80
2018-07-05T08:28:44.216Z,82.00
2018-07-05T08:33:38.974Z,83.00
2018-07-05T08:36:06.178Z,82.20
2018-07-05T08:38:33.416Z,82.60
2018-07-05T08:41:00.668Z,81.40
2018-07-05T08:43:27.897Z,82.20
2018-07-05T08:45:55.053Z,83.10
2018-07-05T08:48:22.279Z,83.10
2018-07-05T08:50:49.516Z,82.30
2018-07-05T08:53:16.707Z,83.60
2018-07-05T08:55:44.037Z,83.10
2018-07-05T08:58:11.279Z,82.00
2018-07-05T09:00:38.477Z,82.80
2018-07-05T09:03:05.693Z,82.60
2018-07-05T09:05:33.131Z,83.20
2018-07-05T09:08:00.289Z,83.60
2018-07-05T09:10:27.516Z,83.00
2018-07-05T09:12:54.708Z,82.20
2018-07-05T09:15:21.938Z,81.40
2018-07-05T09:17:49.262Z,81.20
2018-07-05T09:20:16.339Z,81.80
2018-07-05T09:22:43.585Z,81.50
2018-07-05T09:25:10.821Z,81.70
2018-07-05T09:27:38.033Z,81.40
2018-07-05T09:30:05.265Z,80.20
2018-07-05T09:32:32.481Z,79.50
2018-07-05T09:35:00.619Z,78.80
2018-07-05T09:37:28.748Z,79.90
2018-07-05T09:39:55.939Z,80.60
2018-07-05T09:42:23.137Z,79.30
2018-07-05T09:44:50.407Z,80.40
2018-07-05T09:47:17.629Z,80.30
2018-07-05T09:49:44.829Z,81.20
2018-07-05T09:52:12.020Z,79.70
2018-07-05T09:54:40.255Z,81.50
2018-07-05T09:57:07.490Z,81.60
2018-07-05T09:59:34.710Z,80.60
2018-07-05T10:02:01.978Z,79.60
2018-07-05T10:04:29.247Z,80.30
2018-07-05T10:06:56.458Z,80.00
2018-07-05T10:09:23.661Z,79.70
2018-07-05T10:11:50.974Z,80.80
2018-07-05T10:14:18.266Z,80.90
2018-07-05T10:16:45.463Z,79.70
2018-07-05T10:19:12.653Z,81.30
2018-07-05T10:21:39.916Z,81.40
2018-07-05T10:24:07.142Z,81.40
2018-07-05T10:26:34.421Z,82.00
2018-07-05T10:29:14.106Z,81.30
2018-07-05T10:31:53.744Z,82.40
2018-07-05T10:34:21.067Z,80.70
2018-07-05T10:39:15.698Z,81.00
2018-07-05T10:41:55.373Z,82.70
2018-07-05T10:44:35.120Z,81.20
2018-07-05T10:47:14.661Z,79.90
2018-07-05T10:49:54.236Z,82.10
2018-07-05T10:52:33.874Z,81.90
2018-07-05T10:57:47.082Z,81.50
2018-07-05T11:00:26.745Z,81.90
2018-07-05T11:05:40.142Z,82.60
2018-07-05T11:08:19.781Z,82.20
2018-07-05T11:10:59.242Z,81.20
2018-07-05T11:13:38.919Z,81.20
2018-07-05T11:16:18.416Z,81.50
2018-07-05T11:18:57.977Z,81.80
2018-07-05T11:21:37.577Z,81.10
2018-07-05T11:24:17.169Z,80.50
2018-07-05T11:26:56.702Z,81.80
2018-07-05T11:29:36.305Z,81.90
2018-07-05T11:32:15.892Z,80.90
2018-07-05T11:34:55.660Z,80.60
2018-07-05T11:37:35.235Z,81.70
2018-07-05T11:40:14.819Z,80.90
2018-07-05T11:42:54.546Z,81.00
2018-07-05T11:45:34.004Z,79.80
2018-07-05T11:48:13.482Z,80.90
2018-07-05T11:50:53.067Z,81.40
2018-07-05T11:53:32.724Z,83.10
2018-07-05T11:56:12.295Z,82.20
2018-07-05T11:58:51.907Z,83.30
2018-07-05T12:01:31.618Z,83.80
2018-07-05T12:04:11.242Z,83.20
2018-07-05T12:06:51.032Z,82.40
2018-07-05T12:09:30.660Z,82.70
2018-07-05T12:12:10.215Z,83.20
2018-07-05T12:14:49.831Z,83.30
2018-07-05T12:17:29.448Z,84.30
2018-07-05T12:20:09.096Z,82.80
2018-07-05T12:22:48.666Z,82.60
2018-07-05T12:25:28.330Z,80.60
2018-07-05T12:28:08.289Z,80.60
2018-07-05T12:30:48.003Z,81.40
2018-07-05T12:33:27.705Z,81.30
2018-07-05T12:36:07.450Z,80.80
2018-07-05T12:38:47.266Z,81.50
2018-07-05T12:41:26.805Z,82.20
2018-07-05T12:44:06.486Z,80.60
2018-07-05T12:46:45.909Z,79.90
2018-07-05T12:49:25.763Z,81.10
2018-07-05T12:56:20.451Z,82.00
2018-07-05T12:59:00.038Z,81.50
2018-07-05T13:01:39.665Z,82.50
2018-07-05T13:04:19.526Z,81.20
2018-07-05T13:06:58.884Z,80.00
2018-07-05T13:09:38.423Z,80.90
2018-07-05T13:12:18.165Z,81.80
2018-07-05T13:14:57.726Z,81.90
2018-07-05T13:17:37.258Z,83.10
2018-07-05T13:20:16.890Z,81.30
2018-07-05T13:22:56.469Z,81.40
2018-07-05T13:25:36.277Z,81.80
2018-07-05T13:28:15.925Z,81.90
2018-07-05T13:30:55.556Z,81.50
2018-07-05T13:33:35.445Z,82.50
2018-07-05T13:36:15.041Z,83.70
2018-07-05T13:38:54.657Z,83.00
2018-07-05T13:41:34.192Z,81.50
2018-07-05T13:44:13.772Z,83.40
2018-07-05T13:46:53.416Z,84.00
2018-07-05T13:49:33.160Z,83.40
2018-07-05T13:52:12.864Z,83.30
2018-07-05T13:54:52.638Z,83.10
2018-07-05T13:57:32.312Z,83.40
2018-07-05T14:00:11.815Z,83.20
2018-07-05T14:02:51.368Z,83.70
2018-07-05T14:05:30.937Z,83.20
2018-07-05T14:08:10.534Z,81.80
2018-07-05T14:10:50.079Z,82.20
2018-07-05T14:13:29.719Z,82.80
2018-07-05T14:16:09.174Z,82.60
2018-07-05T14:18:48.804Z,82.10
2018-07-05T14:21:28.428Z,81.60
2018-07-05T14:24:08.203Z,80.70
2018-07-05T14:26:47.934Z,81.50
2018-07-05T14:29:27.646Z,81.50
2018-07-05T14:32:07.066Z,81.40
2018-07-05T14:34:46.644Z,81.00
2018-07-05T14:37:26.362Z,81.60
2018-07-05T14:40:06.990Z,83.30
2018-07-05T14:42:46.616Z,82.10
2018-07-05T14:47:59.981Z,83.70
2018-07-05T14:50:39.512Z,83.00
2018-07-05T14:53:19.169Z,82.60
2018-07-05T14:55:58.842Z,81.20
2018-07-05T14:58:38.607Z,81.10
2018-07-05T15:01:18.147Z,81.90
2018-07-05T15:03:57.692Z,83.40
2018-07-05T15:06:37.471Z,83.60
2018-07-05T15:09:17.204Z,84.00
2018-07-05T15:11:56.660Z,84.10
2018-07-05T15:14:36.404Z,84.00
2018-07-05T15:17:15.966Z,83.00
2018-07-05T15:19:55.613Z,84.60
2018-07-05T15:22:35.798Z,85.40
2018-07-05T15:25:15.440Z,85.30
2018-07-05T15:27:54.930Z,85.90
2018-07-05T15:30:34.485Z,85.50
2018-07-05T15:33:14.142Z,84.20
2018-07-05T15:35:53.790Z,84.80
2018-07-05T15:38:33.405Z,85.70
2018-07-05T15:41:13.221Z,86.20
2018-07-05T15:43:52.868Z,85.90
2018-07-05T15:46:32.651Z,87.00
2018-07-05T15:49:12.291Z,86.70
2018-07-05T15:51:51.974Z,86.70
2018-07-05T15:54:31.586Z,86.70
2018-07-05T15:57:11.162Z,88.20
2018-07-05T15:59:50.797Z,87.20
2018-07-05T16:05:04.209Z,88.30
2018-07-05T16:07:43.930Z,87.00
2018-07-05T16:10:23.548Z,86.50
2018-07-05T16:13:03.112Z,86.80
2018-07-05T16:15:42.743Z,86.70
2018-07-05T16:18:22.319Z,86.70
2018-07-05T16:21:01.858Z,87.00
2018-07-05T16:23:41.469Z,87.30
2018-07-05T16:26:21.244Z,86.20
2018-07-05T16:29:01.092Z,85.90
2018-07-05T16:31:40.520Z,86.50
2018-07-05T16:34:20.252Z,87.00
2018-07-05T16:36:59.802Z,86.30
2018-07-05T16:39:39.434Z,86.50
2018-07-05T16:42:19.093Z,86.50
2018-07-05T16:44:59.102Z,86.70
2018-07-05T16:47:38.835Z,87.40
2018-07-05T16:50:18.489Z,87.00
2018-07-05T16:52:58.155Z,87.10
2018-07-05T16:55:37.888Z,86.70
2018-07-05T16:58:17.713Z,86.50
2018-07-05T17:00:57.303Z,87.20
2018-07-05T17:03:37.007Z,87.10
2018-07-05T17:06:16.623Z,87.10
2018-07-05T17:08:56.186Z,87.10
2018-07-05T17:11:35.905Z,87.80
2018-07-05T17:14:15.425Z,87.50
2018-07-05T17:16:54.994Z,87.50
2018-07-05T17:19:34.678Z,88.10
2018-07-05T17:22:14.124Z,87.70
2018-07-05T17:24:53.990Z,86.80
2018-07-05T17:27:33.973Z,87.40
2018-07-05T17:30:13.470Z,87.50
2018-07-05T17:32:53.070Z,88.20
2018-07-05T17:35:32.819Z,87.60
2018-07-05T17:38:12.423Z,87.90
2018-07-05T17:40:52.295Z,88.50
2018-07-05T17:43:31.879Z,88.20
2018-07-05T17:46:11.753Z,88.40
2018-07-05T17:48:51.640Z,87.80
2018-07-05T17:51:31.307Z,88.50
2018-07-05T17:54:10.893Z,88.90
2018-07-05T17:56:50.552Z,89.60
2018-07-05T17:59:30.226Z,89.10
2018-07-05T18:02:09.869Z,89.50
2018-07-05T18:04:49.505Z,89.50
2018-07-05T18:07:29.128Z,90.00
2018-07-05T18:10:08.783Z,90.00
2018-07-05T18:12:48.452Z,90.10
2018-07-05T18:15:28.187Z,90.10
2018-07-05T18:18:07.793Z,90.10
2018-07-05T18:20:47.384Z,89.70
2018-07-05T18:23:27.029Z,89.90
2018-07-05T18:26:06.568Z,90.20
2018-07-05T18:28:46.112Z,90.10
2018-07-05T18:31:25.504Z,90.00
2018-07-05T18:34:05.203Z,89.70
2018-07-05T18:36:44.821Z,90.10
2018-07-05T18:39:24.562Z,90.40
2018-07-05T18:42:04.209Z,90.30
2018-07-05T18:44:44.315Z,90.60
2018-07-05T18:47:23.909Z,90.50
2018-07-05T18:50:03.572Z,90.40
2018-07-05T18:52:43.190Z,90.40
2018-07-05T18:55:22.786Z,90.50
2018-07-05T18:58:02.979Z,90.60
2018-07-05T19:00:42.505Z,90.40
2018-07-05T19:03:22.161Z,90.40
2018-07-05T19:06:02.780Z,90.40
2018-07-05T19:08:42.543Z,90.60
2018-07-05T19:11:22.016Z,90.80
2018-07-05T19:14:01.710Z,90.90
2018-07-05T19:16:41.278Z,91.00
2018-07-05T19:19:20.835Z,91.40
2018-07-05T19:22:00.486Z,91.10
2018-07-05T19:24:40.246Z,91.20
2018-07-05T19:27:19.655Z,91.30
2018-07-05T19:29:59.366Z,91.40
2018-07-05T19:32:39.033Z,91.30
2018-07-05T19:37:53.352Z,91.20
2018-07-05T19:40:32.975Z,91.50
2018-07-05T19:43:12.518Z,91.50
2018-07-05T19:45:51.987Z,91.60
2018-07-05T19:48:31.618Z,91.70
2018-07-05T19:51:11.144Z,91.90
2018-07-05T19:53:50.835Z,92.00
2018-07-05T19:56:30.718Z,92.00
2018-07-05T19:59:10.379Z,92.10
2018-07-05T20:01:49.926Z,92.00
2018-07-05T20:04:29.643Z,92.10
2018-07-05T20:07:09.441Z,92.20
2018-07-05T20:09:49.138Z,92.30
2018-07-05T20:12:28.908Z,92.50
2018-07-05T20:15:08.516Z,92.60
2018-07-05T20:17:48.061Z,92.80
2018-07-05T20:20:27.614Z,92.90
2018-07-05T20:23:07.222Z,93.20
2018-07-05T20:28:20.436Z,93.30
2018-07-05T20:31:00.089Z,93.40
2018-07-05T20:33:39.684Z,93.40
2018-07-05T20:36:19.199Z,93.80
2018-07-05T20:38:58.849Z,93.40
2018-07-05T20:41:38.472Z,93.40
2018-07-05T20:44:18.265Z,93.40
2018-07-05T20:46:57.808Z,93.40
2018-07-05T20:49:37.411Z,93.40
2018-07-05T20:52:17.063Z,93.30
2018-07-05T20:54:56.809Z,93.30
2018-07-05T20:57:36.462Z,93.30
2018-07-05T21:00:16.038Z,93.30
2018-07-05T21:02:55.725Z,93.40
2018-07-05T21:05:35.625Z,93.50
2018-07-05T21:08:15.644Z,93.70
2018-07-05T21:10:55.284Z,93.70
2018-07-05T21:13:35.096Z,93.80
2018-07-05T21:16:14.717Z,93.80
2018-07-05T21:18:54.266Z,93.70
2018-07-05T21:21:33.851Z,93.70
2018-07-05T21:24:13.364Z,93.70
2018-07-05T21:26:52.855Z,93.60
2018-07-05T21:29:32.445Z,93.70
2018-07-05T21:32:11.963Z,93.50
2018-07-05T21:34:51.896Z,93.30
2018-07-05T21:37:31.532Z,93.10
2018-07-05T21:40:11.192Z,93.00
2018-07-05T21:42:50.647Z,92.70
2018-07-05T21:45:30.072Z,92.60
2018-07-05T21:50:43.125Z,92.60
2018-07-05T21:53:22.820Z,92.60
2018-07-05T21:56:02.529Z,92.50
2018-07-05T21:58:42.137Z,92.50
2018-07-05T22:01:21.800Z,92.60
2018-07-05T22:04:01.337Z,92.50
2018-07-05T22:06:40.947Z,92.50
2018-07-05T22:09:20.549Z,92.40
2018-07-05T22:12:00.018Z,92.40
2018-07-05T22:14:40.604Z,92.40
2018-07-05T22:17:25.689Z,92.40
2018-07-05T22:20:10.634Z,92.40
2018-07-05T22:25:34.818Z,92.30
2018-07-05T22:28:19.903Z,92.20
2018-07-05T22:33:38.574Z,92.20
2018-07-05T22:36:18.329Z,92.20
2018-07-05T22:38:57.994Z,92.20
2018-07-05T22:41:37.650Z,92.30
2018-07-05T22:44:17.253Z,92.40
2018-07-05T22:46:56.635Z,92.50
2018-07-05T22:49:36.330Z,92.40
2018-07-05T22:52:16.004Z,92.40
2018-07-05T22:54:55.646Z,92.50
2018-07-05T22:57:35.250Z,92.60
2018-07-05T23:00:14.878Z,92.60
2018-07-05T23:02:54.470Z,92.80
2018-07-05T23:05:35.195Z,93.10
2018-07-05T23:08:14.789Z,92.80
2018-07-05T23:10:54.232Z,92.80
2018-07-05T23:13:33.821Z,92.60
2018-07-05T23:16:13.452Z,92.60
2018-07-05T23:18:53.091Z,92.60
2018-07-05T23:21:32.621Z,92.70
2018-07-05T23:24:12.321Z,92.70
2018-07-05T23:26:52.008Z,92.80
2018-07-05T23:29:31.527Z,92.90
2018-07-05T23:32:11.150Z,92.90
2018-07-05T23:34:50.776Z,92.90
2018-07-05T23:37:30.442Z,92.80
2018-07-05T23:40:10.167Z,92.60
2018-07-05T23:42:49.847Z,92.70
2018-07-05T23:45:29.484Z,92.70
2018-07-05T23:48:09.134Z,92.70
2018-07-05T23:50:48.697Z,92.60
2018-07-05T23:53:28.417Z,92.60
2018-07-05T23:56:08.027Z,92.60
2018-07-05T23:58:47.629Z,92.60
